Time;durP1;ratioP1;P1;durP2;ratioP2;P2;SDS_P1;SDS_P2;PMS_P1;PMS_P2;Temp;Humidity;BMP_temperature;BMP_pressure;BME280_temperature;BME280_humidity;BME280_pressure;Samples;Min_cycle;Max_cycle;Signal;HPM_P1;HPM_P2
2022/08/05 00:01:19;;;;;;;1.80;1.70;;;24.40;99.90;;;24.56;53.77;100865.63;4992706;27;97276;-46
2022/08/05 00:03:49;;;;;;;1.65;1.55;;;24.40;99.90;;;24.53;53.77;100860.53;4995877;27;97471;-44
2022/08/05 00:06:15;;;;;;;1.52;1.42;;;24.40;99.90;;;24.51;53.83;100862.50;4994021;27;100975;-44
2022/08/05 00:08:41;;;;;;;2.85;1.80;;;24.40;99.90;;;24.57;54.16;100851.16;4992954;27;97393;-46
2022/08/05 00:11:14;;;;;;;3.78;2.05;;;24.40;99.90;;;24.59;53.87;100857.28;4991660;28;97029;-48
2022/08/05 00:13:43;;;;;;;2.15;1.77;;;24.40;99.90;;;24.55;53.75;100853.13;5004307;27;96599;-46
2022/08/05 00:16:13;;;;;;;1.58;1.48;;;24.40;99.90;;;24.46;54.00;100854.00;5008610;27;97098;-50
2022/08/05 00:18:47;;;;;;;2.03;1.55;;;24.40;99.90;;;24.48;54.10;100857.41;5000871;27;96888;-47
2022/08/05 00:21:15;;;;;;;1.40;1.30;;;24.40;99.90;;;24.52;53.95;100868.75;4999026;27;98653;-44
2022/08/05 00:23:44;;;;;;;1.67;1.58;;;24.40;99.90;;;24.56;54.06;100871.03;4983749;27;97048;-47
2022/08/05 00:26:11;;;;;;;2.63;2.13;;;24.40;99.90;;;24.60;55.68;100872.47;4982472;27;96749;-47
2022/08/05 00:28:37;;;;;;;5.70;2.88;;;24.50;99.90;;;24.64;56.49;100875.72;5001558;27;97170;-47
2022/08/05 00:31:04;;;;;;;5.00;2.90;;;24.50;99.90;;;24.69;59.22;100869.91;4996830;27;97104;-45
2022/08/05 00:33:30;;;;;;;4.57;2.75;;;24.50;99.90;;;24.66;56.60;100870.19;4994606;28;98017;-48
2022/08/05 00:35:56;;;;;;;2.38;2.17;;;24.50;99.90;;;24.63;54.78;100866.78;5009511;27;98030;-45
2022/08/05 00:38:22;;;;;;;5.10;3.15;;;24.50;99.90;;;24.63;55.90;100861.41;4997556;27;98466;-45
2022/08/05 00:40:51;;;;;;;4.72;3.33;;;24.40;99.90;;;24.65;58.84;100863.09;5004455;27;97105;-45
2022/08/05 00:43:18;;;;;;;5.85;2.67;;;24.50;99.90;;;24.67;59.61;100853.00;4992476;27;103371;-44
2022/08/05 00:45:46;;;;;;;3.67;2.30;;;24.40;99.90;;;24.60;55.77;100853.59;4996103;27;97067;-44
2022/08/05 00:48:18;;;;;;;3.78;2.30;;;24.40;99.90;;;24.59;56.37;100857.28;4993261;27;96612;-47
2022/08/05 00:50:47;;;;;;;6.38;2.72;;;24.40;99.90;;;24.60;58.77;100856.28;4994157;27;98122;-44
2022/08/05 00:53:20;;;;;;;3.50;2.70;;;24.40;99.90;;;24.58;57.63;100869.03;4988535;27;97693;-46
2022/08/05 00:55:46;;;;;;;3.50;2.17;;;24.40;99.90;;;24.55;55.28;100863.94;4996731;27;97046;-48
2022/08/05 00:58:15;;;;;;;4.10;2.85;;;24.40;99.90;;;24.55;58.29;100869.31;4988513;27;97057;-45
2022/08/05 01:00:42;;;;;;;3.15;2.22;;;24.40;99.90;;;24.55;56.37;100868.47;4995126;28;97202;-46
2022/08/05 01:03:09;;;;;;;3.42;2.67;;;24.40;99.90;;;24.58;59.29;100868.19;4994120;27;97555;-45
2022/08/05 01:05:35;;;;;;;3.00;2.80;;;24.40;99.90;;;24.53;57.22;100876.69;4987536;28;96982;-44
2022/08/05 01:08:02;;;;;;;5.10;3.17;;;24.40;99.90;;;24.53;59.55;100887.47;4984039;27;97123;-46
2022/08/05 01:10:57;;;;;;;6.20;3.15;;;24.40;99.90;;;24.58;60.60;100882.50;4980173;28;97421;-49
2022/08/05 01:13:45;;;;;;;5.45;3.28;;;24.30;99.90;;;24.49;59.34;100886.06;4981873;28;102028;-45
2022/08/05 01:16:21;;;;;;;5.70;3.65;;;24.30;99.90;;;24.51;59.79;100889.47;4992094;27;98848;-44
2022/08/05 01:18:53;;;;;;;4.40;3.47;;;24.30;99.90;;;24.50;58.78;100887.78;4992568;28;97625;-49
2022/08/05 01:21:33;;;;;;;4.50;2.90;;;24.30;99.90;;;24.45;55.15;100890.03;4989726;28;97238;-45
2022/08/05 01:24:14;;;;;;;5.95;2.75;;;24.30;99.90;;;24.38;56.34;100899.66;4993665;27;97282;-45
2022/08/05 01:26:58;;;;;;;3.83;2.67;;;24.20;99.90;;;24.40;54.86;100891.44;4985698;28;97084;-45
2022/08/05 01:29:35;;;;;;;4.13;2.50;;;24.20;99.90;;;24.39;55.71;100893.28;4997808;27;97876;-44
2022/08/05 01:32:05;;;;;;;5.60;3.20;;;24.20;99.90;;;24.44;57.58;100893.69;4986064;27;97442;-46
2022/08/05 01:34:50;;;;;;;2.20;1.70;;;24.20;99.90;;;24.44;56.80;100907.19;4994200;27;98868;-48
2022/08/05 01:37:39;;;;;;;2.03;1.80;;;24.30;99.90;;;24.46;57.54;100902.53;4994092;27;100000;-45
2022/08/05 01:40:06;;;;;;;5.15;3.10;;;24.20;99.90;;;24.45;57.46;100899.94;4990310;27;99895;-47
2022/08/05 01:42:35;;;;;;;4.28;2.45;;;24.20;99.90;;;24.45;58.63;100906.22;4991931;28;97522;-43
2022/08/05 01:45:02;;;;;;;5.03;3.60;;;24.20;99.90;;;24.44;58.35;100923.34;4990808;27;97935;-44
2022/08/05 01:47:32;;;;;;;5.53;2.60;;;24.20;99.90;;;24.44;56.20;100930.59;4990390;28;97562;-45
2022/08/05 01:50:00;;;;;;;3.53;2.83;;;24.10;99.90;;;24.42;54.91;100929.88;4985372;27;97137;-44
2022/08/05 01:52:28;;;;;;;4.10;2.80;;;24.10;99.90;;;24.43;56.83;100923.50;4984262;28;97172;-46
2022/08/05 01:55:03;;;;;;;4.55;3.03;;;24.20;99.90;;;24.45;57.39;100922.41;4986967;28;97381;-44
2022/08/05 01:57:32;;;;;;;4.22;3.05;;;24.20;99.90;;;24.43;55.08;100924.34;4989271;27;97482;-45
2022/08/05 02:00:02;;;;;;;5.55;2.72;;;24.10;99.90;;;24.41;55.08;100929.03;4992104;27;96779;-45
2022/08/05 02:02:31;;;;;;;5.38;3.25;;;24.20;99.90;;;24.41;56.69;100934.41;4996571;27;97500;-45
2022/08/05 02:05:05;;;;;;;4.55;3.05;;;24.10;99.90;;;24.39;55.20;100938.25;4992881;28;97524;-45
2022/08/05 02:07:33;;;;;;;6.60;4.10;;;24.10;99.90;;;24.35;56.16;100948.47;4990072;28;97698;-44
2022/08/05 02:09:59;;;;;;;4.70;3.27;;;24.10;99.90;;;24.31;56.33;100952.44;4991860;27;100070;-45
2022/08/05 02:12:56;;;;;;;5.90;3.08;;;24.00;99.90;;;24.30;56.97;100956.09;4996826;28;97064;-45
2022/08/05 02:15:33;;;;;;;6.43;3.30;;;24.00;99.90;;;24.19;59.34;100958.88;4987952;28;102984;-44
2022/08/05 02:18:26;;;;;;;7.47;3.90;;;23.90;99.90;;;24.18;58.61;100974.19;4979596;27;104569;-45
2022/08/05 02:21:02;;;;;;;4.30;2.90;;;23.80;99.90;;;24.14;58.58;100977.25;4994282;27;97110;-45
2022/08/05 02:23:32;;;;;;;6.15;3.22;;;23.80;99.90;;;24.13;56.06;100986.34;4996254;28;96862;-44
2022/08/05 02:26:02;;;;;;;4.73;3.77;;;23.80;99.90;;;24.13;59.21;100980.94;5000732;27;97238;-43
2022/08/05 02:28:34;;;;;;;2.50;2.30;;;23.80;99.90;;;24.09;56.24;100990.28;5012155;28;96678;-44
2022/08/05 02:31:06;;;;;;;5.87;3.73;;;23.70;99.90;;;24.04;57.69;101002.34;5002046;27;97077;-44
2022/08/05 02:33:39;;;;;;;5.67;3.93;;;23.70;99.90;;;24.04;58.20;101020.34;5002924;28;97679;-43
2022/08/05 02:36:14;;;;;;;7.60;4.57;;;23.70;99.90;;;24.04;56.25;101026.59;4999988;28;96736;-44
2022/08/05 02:38:47;;;;;;;5.35;3.33;;;23.70;99.90;;;24.03;59.01;101024.88;4996130;28;100168;-45
2022/08/05 02:41:15;;;;;;;4.77;4.27;;;23.70;99.90;;;24.08;56.89;101031.69;5000588;28;97092;-46
2022/08/05 02:43:43;;;;;;;3.80;2.80;;;23.80;99.90;;;24.09;59.12;101044.19;5000107;27;96900;-45
2022/08/05 02:46:15;;;;;;;8.47;5.20;;;23.80;99.90;;;24.09;60.34;101054.97;5009105;27;97633;-46
2022/08/05 02:48:43;;;;;;;9.20;5.57;;;23.80;99.90;;;24.07;59.79;101068.56;4996645;27;98399;-44
2022/08/05 02:51:10;;;;;;;10.35;6.15;;;23.80;99.90;;;24.02;58.26;101087.84;4991324;27;97349;-44
2022/08/05 02:53:38;;;;;;;9.17;6.77;;;23.70;99.90;;;24.03;57.45;101105.72;4991413;28;96968;-46
2022/08/05 02:56:08;;;;;;;8.20;6.30;;;23.80;99.90;;;23.88;59.96;101127.72;4987584;27;97777;-44
2022/08/05 02:58:35;;;;;;;12.13;7.43;;;23.70;99.90;;;23.77;57.99;101125.06;4991842;27;102226;-44
2022/08/05 03:01:02;;;;;;;7.47;4.37;;;23.50;99.90;;;23.84;57.52;101073.22;4994737;27;96993;-46
2022/08/05 03:03:28;;;;;;;3.63;2.78;;;23.60;99.90;;;23.87;56.78;101004.75;4995561;28;97223;-43
2022/08/05 03:05:56;;;;;;;2.57;2.37;;;23.70;99.90;;;23.77;57.04;100926.59;4993344;27;98576;-46
2022/08/05 03:08:23;;;;;;;4.53;2.83;;;23.70;99.90;;;23.85;57.25;100870.22;4994930;27;97300;-44
2022/08/05 03:10:49;;;;;;;2.30;1.93;;;23.70;99.90;;;23.73;56.92;100806.69;4993686;27;97156;-54
2022/08/05 03:13:16;;;;;;;3.30;2.45;;;23.70;99.90;;;23.78;57.32;100825.97;4992628;28;97482;-47
2022/08/05 03:15:46;;;;;;;11.25;8.75;;;23.80;99.90;;;23.91;61.05;100864.28;4996256;27;97180;-44
2022/08/05 03:18:13;;;;;;;4.68;2.60;;;23.80;99.90;;;24.00;56.67;100892.25;4991427;27;99403;-44
2022/08/05 03:20:40;;;;;;;2.80;2.33;;;23.80;99.90;;;24.03;56.53;100937.81;5004345;27;103767;-46
2022/08/05 03:23:09;;;;;;;12.50;8.77;;;23.90;99.90;;;24.09;64.22;100960.66;4981557;27;96668;-46
2022/08/05 03:25:37;;;;;;;9.55;8.10;;;23.80;99.90;;;24.05;63.56;100992.41;5000388;27;97729;-44
2022/08/05 03:28:05;;;;;;;11.15;9.80;;;23.70;99.90;;;23.98;63.79;100992.06;4999376;27;97740;-45
2022/08/05 03:30:33;;;;;;;10.45;7.28;;;23.60;99.90;;;23.95;57.75;100994.19;4988233;28;96939;-45
2022/08/05 03:33:01;;;;;;;8.67;5.80;;;23.50;99.90;;;23.96;57.27;100988.66;4993907;27;97225;-45
2022/08/05 03:35:28;;;;;;;9.43;8.47;;;23.60;99.90;;;24.00;59.75;101005.41;4988277;28;96999;-44
2022/08/05 03:37:58;;;;;;;11.03;8.77;;;23.70;99.90;;;24.02;57.08;101004.31;4996268;27;102500;-45
2022/08/05 03:40:24;;;;;;;10.30;9.00;;;23.70;99.90;;;24.05;57.67;100995.09;4995655;27;97216;-44
2022/08/05 03:42:51;;;;;;;9.40;7.20;;;23.80;99.90;;;24.09;58.58;100993.84;4995483;27;97061;-46
2022/08/05 03:45:17;;;;;;;12.57;9.40;;;23.80;99.90;;;24.10;60.07;100992.00;4994835;27;96962;-47
2022/08/05 03:47:42;;;;;;;3.70;2.63;;;23.80;99.90;;;24.11;58.13;100977.53;4998379;27;97347;-45
2022/08/05 03:50:08;;;;;;;10.63;9.03;;;23.80;99.90;;;24.08;61.91;100981.34;4996945;27;97072;-48
2022/08/05 03:53:10;;;;;;;12.90;9.73;;;23.70;99.90;;;24.07;60.51;100992.28;5011088;27;96699;-46
2022/08/05 03:55:49;;;;;;;8.23;7.40;;;23.70;99.90;;;24.01;57.40;100999.03;5001992;27;101677;-45
2022/08/05 03:58:18;;;;;;;9.53;7.77;;;23.70;99.90;;;24.03;57.21;100997.94;4993639;28;99807;-44
2022/08/05 04:00:46;;;;;;;11.97;9.73;;;23.70;99.90;;;24.07;60.87;100981.50;5001846;27;97299;-46
2022/08/05 04:03:14;;;;;;;11.20;9.98;;;23.80;99.90;;;24.08;58.00;100977.81;4998712;27;96989;-50
2022/08/05 04:05:41;;;;;;;7.43;5.65;;;23.80;99.90;;;24.10;57.07;100983.91;4984213;28;97970;-47
2022/08/05 04:08:10;;;;;;;10.63;8.00;;;23.80;99.90;;;24.11;58.08;100973.00;4979952;27;97236;-47
2022/08/05 04:10:37;;;;;;;13.93;10.40;;;23.80;99.90;;;24.11;60.59;100961.38;4993426;27;97180;-48
2022/08/05 04:13:06;;;;;;;13.70;12.27;;;23.80;99.90;;;24.09;59.57;100955.25;4999742;27;97166;-44
2022/08/05 04:15:32;;;;;;;12.40;11.20;;;23.80;99.90;;;24.07;58.28;100952.69;4995464;27;97551;-44
2022/08/05 04:18:04;;;;;;;5.20;4.47;;;23.80;99.90;;;24.09;58.88;100947.19;4989407;27;97582;-47
2022/08/05 04:20:30;;;;;;;11.37;9.97;;;23.80;99.90;;;24.07;57.30;100954.53;4994876;27;97368;-44
2022/08/05 04:22:56;;;;;;;12.83;11.23;;;23.80;99.90;;;24.07;57.71;100951.84;4980596;27;96776;-45
2022/08/05 04:25:22;;;;;;;3.20;2.90;;;23.80;99.90;;;24.08;57.04;100940.09;4994760;27;97951;-48
2022/08/05 04:27:48;;;;;;;11.73;10.53;;;23.80;99.90;;;24.07;60.62;100927.59;4994878;27;97087;-45
2022/08/05 04:30:14;;;;;;;16.30;13.97;;;23.80;99.90;;;24.04;61.30;100908.03;4992297;27;97568;-46
2022/08/05 04:32:39;;;;;;;14.50;12.67;;;23.70;99.90;;;24.01;60.58;100886.75;4985076;27;98468;-45
2022/08/05 04:35:07;;;;;;;5.87;5.33;;;23.70;99.90;;;24.01;60.74;100880.47;4988955;27;97633;-46
2022/08/05 04:37:33;;;;;;;19.00;16.87;;;23.70;99.90;;;23.98;61.98;100897.78;4987600;27;97112;-47
2022/08/05 04:39:59;;;;;;;19.03;17.13;;;23.70;99.90;;;23.96;57.60;100926.69;4989503;27;97141;-45
2022/08/05 04:42:25;;;;;;;16.27;14.53;;;23.70;99.90;;;23.94;57.33;100934.06;4987003;27;96918;-47
2022/08/05 04:44:50;;;;;;;10.57;9.53;;;23.70;99.90;;;23.97;57.10;100917.63;5000577;27;113594;-48
2022/08/05 04:47:16;;;;;;;19.07;17.10;;;23.70;99.90;;;23.99;62.57;100926.41;4992587;27;112192;-44
2022/08/05 04:49:42;;;;;;;17.20;15.47;;;23.70;99.90;;;23.96;57.66;100947.41;5001768;27;96931;-44
2022/08/05 04:52:08;;;;;;;17.73;15.90;;;23.70;99.90;;;23.97;57.36;100949.09;4992575;27;97858;-45
2022/08/05 04:54:33;;;;;;;10.93;9.90;;;23.70;99.90;;;23.97;57.08;100966.13;4994526;27;99460;-43
2022/08/05 04:56:59;;;;;;;12.73;11.50;;;23.70;99.90;;;23.97;57.35;100978.72;4993208;27;97382;-46
2022/08/05 04:59:25;;;;;;;16.23;14.63;;;23.80;99.90;;;23.97;58.36;100984.97;4994028;28;97321;-44
2022/08/05 05:01:51;;;;;;;16.33;14.67;;;23.80;99.90;;;23.98;58.45;100999.28;4996080;27;97174;-47
2022/08/05 05:04:17;;;;;;;19.50;17.53;;;23.80;99.90;;;23.95;57.92;101000.41;4998085;27;98141;-43
2022/08/05 05:06:43;;;;;;;23.63;21.13;;;23.80;99.90;;;23.99;57.67;100990.22;4992454;27;100671;-49
2022/08/05 05:09:10;;;;;;;19.50;17.63;;;23.80;99.90;;;23.99;57.15;100983.00;4996012;27;96933;-47
2022/08/05 05:11:36;;;;;;;24.67;22.17;;;23.80;99.90;;;24.00;57.41;100983.84;5005426;27;96718;-44
2022/08/05 05:14:02;;;;;;;19.97;17.87;;;23.80;99.90;;;23.99;56.98;100974.91;4985062;27;103425;-43
2022/08/05 05:16:29;;;;;;;25.47;23.13;;;23.80;99.90;;;24.01;59.42;100978.34;5003231;28;96731;-46
2022/08/05 05:18:55;;;;;;;26.60;23.83;;;23.70;99.90;;;24.00;57.99;100981.16;4991800;27;97048;-46
2022/08/05 05:21:20;;;;;;;28.47;25.67;;;23.80;99.90;;;23.99;59.12;100980.31;5003228;27;97246;-46
2022/08/05 05:23:46;;;;;;;29.33;25.43;;;23.70;99.90;;;23.99;59.17;100983.00;5003547;27;97946;-45
2022/08/05 05:26:12;;;;;;;6.80;6.20;;;23.70;99.90;;;23.97;57.39;100960.72;5007601;27;96752;-44
2022/08/05 05:28:38;;;;;;;28.57;25.67;;;23.70;99.90;;;23.95;61.45;100973.47;5008805;27;96723;-47
2022/08/05 05:31:04;;;;;;;32.00;28.57;;;23.60;99.90;;;23.90;58.32;100967.66;5002678;27;97172;-44
2022/08/05 05:33:30;;;;;;;21.40;19.23;;;23.50;99.90;;;23.92;57.70;100968.38;5010599;27;96982;-44
2022/08/05 05:35:55;;;;;;;29.17;26.20;;;23.50;99.90;;;23.90;57.68;100970.34;5004213;27;97252;-47
2022/08/05 05:38:21;;;;;;;35.27;31.50;;;23.50;99.90;;;23.92;59.75;100987.22;4987387;28;97046;-45
2022/08/05 05:40:47;;;;;;;34.03;30.37;;;23.60;99.90;;;23.92;58.46;100987.22;4996370;27;97416;-51
2022/08/05 05:43:13;;;;;;;34.77;31.20;;;23.60;99.90;;;23.92;60.01;100986.38;4986985;27;116874;-45
2022/08/05 05:45:39;;;;;;;32.67;28.90;;;23.60;99.90;;;23.90;62.02;100991.91;4996999;27;99252;-44
2022/08/05 05:48:06;;;;;;;21.40;19.30;;;23.50;99.90;;;23.88;60.46;100984.94;4986784;27;97621;-46
2022/08/05 05:50:34;;;;;;;33.13;29.67;;;23.50;99.90;;;23.86;59.69;100982.34;4992088;27;98227;-43
2022/08/05 05:53:00;;;;;;;35.97;32.20;;;23.40;99.90;;;23.84;62.56;100976.25;4989108;27;98662;-47
2022/08/05 05:55:26;;;;;;;17.97;16.10;;;23.40;99.90;;;23.79;60.79;100978.50;4993991;28;102479;-45
2022/08/05 05:57:52;;;;;;;35.57;31.97;;;23.30;99.90;;;23.77;58.75;100996.63;4986070;27;96923;-43
2022/08/05 06:00:20;;;;;;;34.30;30.73;;;23.30;99.90;;;23.79;61.59;101000.03;4996850;27;96959;-45
2022/08/05 06:02:46;;;;;;;38.23;33.57;;;23.40;99.90;;;23.79;61.65;101000.03;4997417;27;97865;-45
2022/08/05 06:05:14;;;;;;;35.60;31.93;;;23.40;99.90;;;23.80;59.15;100995.50;4982992;27;97404;-46
2022/08/05 06:07:41;;;;;;;21.10;19.00;;;23.40;99.90;;;23.80;58.55;100996.34;5000774;27;96685;-47
2022/08/05 06:10:09;;;;;;;32.93;29.53;;;23.40;99.90;;;23.82;58.39;101002.47;5011043;27;97332;-48
2022/08/05 06:12:36;;;;;;;34.90;31.20;;;23.40;99.90;;;23.85;59.66;101002.19;4984106;27;98129;-48
2022/08/05 06:15:04;;;;;;;27.97;25.03;;;23.50;99.90;;;23.87;58.05;101000.25;4993704;27;97494;-44
2022/08/05 06:17:30;;;;;;;18.70;16.90;;;23.50;99.90;;;23.88;57.75;100999.25;4996799;27;97604;-44
2022/08/05 06:19:57;;;;;;;35.80;31.93;;;23.60;99.90;;;23.92;62.87;101002.53;4993437;27;97605;-44
2022/08/05 06:22:40;;;;;;;30.20;27.13;;;23.60;99.90;;;23.92;57.97;101016.84;4998992;27;97335;-43
2022/08/05 06:25:07;;;;;;;26.90;24.23;;;23.60;99.90;;;23.93;57.66;101021.25;4996582;27;102003;-50
2022/08/05 06:27:34;;;;;;;36.07;30.43;;;23.70;99.90;;;23.97;58.62;101024.53;4995506;27;97097;-45
2022/08/05 06:30:01;;;;;;;20.63;18.57;;;23.70;99.90;;;23.97;57.63;101025.38;4983667;27;97207;-44
2022/08/05 06:32:27;;;;;;;30.10;26.37;;;23.70;99.90;;;23.98;57.45;101042.41;4988993;27;97382;-47
2022/08/05 06:34:57;;;;;;;26.93;24.30;;;23.80;99.90;;;24.04;57.16;101042.75;4994380;27;97035;-44
2022/08/05 06:37:27;;;;;;;25.27;22.73;;;23.80;99.90;;;24.07;57.14;101035.38;4995328;27;96625;-45
2022/08/05 06:39:53;;;;;;;21.63;19.57;;;23.90;99.90;;;24.08;58.64;101037.09;4990888;27;97414;-46
2022/08/05 06:42:18;;;;;;;24.73;21.63;;;23.90;99.90;;;24.10;57.10;101035.09;4988178;27;97955;-46
2022/08/05 06:44:44;;;;;;;23.57;21.17;;;23.90;99.90;;;24.11;57.71;101037.66;4995250;27;108734;-44
2022/08/05 06:47:10;;;;;;;24.27;22.00;;;23.90;99.90;;;24.12;57.54;101038.53;4991641;27;97895;-46
2022/08/05 06:49:36;;;;;;;15.80;14.27;;;23.90;99.90;;;24.10;57.07;101040.50;4996475;27;96937;-45
2022/08/05 06:52:02;;;;;;;20.77;18.57;;;23.90;99.90;;;24.10;57.69;101041.34;4987513;27;97410;-47
2022/08/05 06:54:27;;;;;;;21.40;19.05;;;23.90;99.90;;;24.07;61.46;101036.22;4994400;27;97526;-45
2022/08/05 06:56:53;;;;;;;20.93;18.87;;;23.80;99.90;;;24.02;57.93;101039.34;4988333;27;97211;-43
2022/08/05 06:59:19;;;;;;;20.60;18.52;;;23.70;99.90;;;23.93;59.21;101045.50;4995265;27;96897;-45
2022/08/05 07:01:45;;;;;;;22.40;20.27;;;23.50;99.90;;;23.91;61.97;101046.63;4995601;27;97290;-45
2022/08/05 07:04:11;;;;;;;23.00;20.73;;;23.50;99.90;;;23.84;63.12;101051.66;5002240;27;97673;-46
2022/08/05 07:06:36;;;;;;;23.40;21.07;;;23.40;99.90;;;23.76;61.86;101047.94;4994909;28;105878;-44
2022/08/05 07:09:03;;;;;;;19.03;17.10;;;23.30;99.90;;;23.77;60.42;101050.50;4987651;27;97421;-49
2022/08/05 07:11:29;;;;;;;11.07;10.13;;;23.30;99.90;;;23.73;60.35;101049.06;4992969;28;99080;-47
2022/08/05 07:16:50;;;;;;;23.33;20.83;;;23.20;99.90;;;23.60;64.22;101059.16;5002721;27;97051;-47
2022/08/05 07:19:19;;;;;;;26.17;23.43;;;23.20;99.90;;;23.54;65.13;101062.31;4982045;27;96943;-43
2022/08/05 07:21:46;;;;;;;25.93;23.33;;;23.00;99.90;;;23.52;61.81;101066.97;4996152;27;97624;-46
2022/08/05 07:24:12;;;;;;;28.97;26.07;;;23.10;99.90;;;23.45;63.78;101078.25;5000368;27;97606;-47
2022/08/05 07:26:39;;;;;;;30.87;26.50;;;23.00;99.90;;;23.44;63.81;101076.56;4999758;27;96790;-43
2022/08/05 07:29:05;;;;;;;19.10;17.23;;;23.00;99.90;;;23.45;61.33;101089.03;5004932;27;96813;-45
2022/08/05 07:31:31;;;;;;;28.40;25.57;;;23.00;99.90;;;23.47;60.46;101085.34;5004038;27;97391;-43
2022/08/05 07:33:57;;;;;;;31.30;28.10;;;23.00;99.90;;;23.41;64.16;101092.06;4995294;27;96977;-44
2022/08/05 07:36:23;;;;;;;30.17;26.80;;;22.90;99.90;;;23.36;62.84;101100.53;4999017;27;96630;-44
2022/08/05 07:38:49;;;;;;;31.33;28.13;;;22.90;99.90;;;23.33;65.03;101100.81;5002596;28;97353;-44
2022/08/05 07:41:18;;;;;;;28.03;25.00;;;22.90;99.90;;;23.29;62.08;101093.97;4996194;27;100880;-47
2022/08/05 07:43:44;;;;;;;24.63;22.07;;;22.70;99.90;;;23.35;60.25;101103.34;4987577;27;98518;-44
2022/08/05 07:46:10;;;;;;;27.47;24.67;;;22.90;99.90;;;23.38;62.72;101108.47;4993986;27;98234;-44
2022/08/05 07:48:36;;;;;;;27.03;24.13;;;22.90;99.90;;;23.43;60.76;101107.16;4997867;27;97143;-46
2022/08/05 07:51:02;;;;;;;27.37;24.43;;;23.00;99.90;;;23.47;60.89;101114.97;4986830;27;97110;-43
2022/08/05 07:53:28;;;;;;;28.10;25.00;;;23.00;99.90;;;23.48;61.67;101113.97;5000856;27;97207;-46
2022/08/05 07:55:54;;;;;;;32.67;28.23;;;23.10;99.90;;;23.50;60.33;101118.25;4993630;27;98757;-44
2022/08/05 07:58:20;;;;;;;19.97;18.07;;;23.10;99.90;;;23.51;60.97;101119.97;4988402;27;96894;-44
2022/08/05 08:00:45;;;;;;;34.07;30.03;;;23.10;99.90;;;23.51;62.38;101125.34;4993771;27;97569;-48
2022/08/05 08:03:13;;;;;;;36.17;29.90;;;23.10;99.90;;;23.54;59.44;101135.00;4988101;27;97297;-46
2022/08/05 08:05:43;;;;;;;22.80;20.23;;;23.10;99.90;;;23.58;59.20;101139.16;4994103;27;97150;-45
2022/08/05 08:08:10;;;;;;;34.47;30.93;;;23.20;99.90;;;23.56;60.13;101141.09;5001336;27;97217;-44
2022/08/05 08:10:36;;;;;;;15.37;13.97;;;23.20;99.90;;;23.55;59.37;101142.09;5004697;27;97849;-45
2022/08/05 08:13:02;;;;;;;34.90;31.30;;;23.20;99.90;;;23.51;60.70;101151.41;4988854;27;97566;-43
2022/08/05 08:15:28;;;;;;;27.50;24.63;;;23.10;99.90;;;23.44;61.30;101151.06;4995634;27;96946;-45
2022/08/05 08:17:54;;;;;;;22.90;20.20;;;23.00;99.90;;;23.32;62.24;101158.31;4995887;27;97059;-46
2022/08/05 08:20:22;;;;;;;24.27;20.93;;;22.90;99.90;;;23.22;64.25;101156.47;4994570;27;98729;-44
2022/08/05 08:22:57;;;;;;;17.53;15.70;;;22.70;99.90;;;23.21;60.78;101155.63;5003505;27;98056;-48
2022/08/05 08:25:24;;;;;;;23.83;21.33;;;22.70;99.90;;;23.20;64.16;101159.28;4992399;27;97261;-46
2022/08/05 08:27:50;;;;;;;19.60;17.53;;;22.70;99.90;;;23.14;62.87;101170.53;4987254;27;97673;-54
2022/08/05 08:30:16;;;;;;;21.37;19.27;;;22.60;99.90;;;23.12;63.01;101173.34;4987484;27;100091;-45
2022/08/05 08:32:42;;;;;;;23.47;20.47;;;22.60;99.90;;;23.05;64.07;101184.75;4987550;28;96901;-44
2022/08/05 08:35:09;;;;;;;23.40;19.63;;;22.50;99.90;;;23.08;62.79;101181.81;4995886;27;97209;-45
2022/08/05 08:37:35;;;;;;;16.03;14.30;;;22.60;99.90;;;23.11;60.61;101182.41;4983130;27;96537;-45
2022/08/05 08:40:00;;;;;;;18.57;16.60;;;22.60;99.90;;;23.16;61.03;101190.13;4990629;27;113151;-45
2022/08/05 08:42:28;;;;;;;18.67;16.80;;;22.70;99.90;;;23.07;62.76;101183.63;4994438;27;98479;-45
2022/08/05 08:44:56;;;;;;;18.83;16.93;;;22.60;99.90;;;23.01;63.80;101183.28;4991416;27;96780;-46
2022/08/05 08:47:25;;;;;;;13.90;12.43;;;22.50;99.90;;;23.01;62.03;101186.81;4993909;27;97671;-51
2022/08/05 08:49:55;;;;;;;18.47;16.37;;;22.40;99.90;;;23.01;61.55;101186.81;4989695;27;97080;-44
2022/08/05 08:52:32;;;;;;;16.63;15.10;;;22.50;99.90;;;23.00;64.85;101192.31;4996423;27;97134;-45
2022/08/05 08:54:59;;;;;;;13.97;12.47;;;22.50;99.90;;;23.05;60.93;101200.88;4988846;27;97126;-50
2022/08/05 08:57:25;;;;;;;12.13;10.93;;;22.50;99.90;;;23.04;60.83;101207.25;4993818;27;97822;-45
2022/08/05 08:59:52;;;;;;;17.43;15.70;;;22.50;99.90;;;23.07;61.02;101218.59;4982713;27;101986;-44
2022/08/05 09:02:19;;;;;;;13.83;12.43;;;22.60;99.90;;;23.10;60.94;101220.19;4994326;27;98437;-44
2022/08/05 09:04:46;;;;;;;22.83;20.53;;;22.60;99.90;;;23.09;63.38;101226.56;4999421;28;98979;-44
2022/08/05 09:07:12;;;;;;;27.23;24.30;;;22.60;99.90;;;23.03;64.38;101237.81;4987447;27;96944;-46
2022/08/05 09:09:39;;;;;;;26.97;24.17;;;22.50;99.90;;;23.05;63.75;101233.16;4990580;28;106667;-43
2022/08/05 09:12:08;;;;;;;25.73;23.13;;;22.50;99.90;;;23.09;61.44;101240.00;4990665;27;97248;-46
2022/08/05 09:14:35;;;;;;;26.90;24.30;;;22.60;99.90;;;23.03;63.15;101249.44;5005942;27;97101;-48
2022/08/05 09:17:08;;;;;;;10.13;9.23;;;22.50;99.90;;;23.03;60.94;101246.75;5001986;27;96820;-45
2022/08/05 09:19:36;;;;;;;11.37;10.37;;;22.50;99.90;;;23.09;60.96;101250.78;5002021;27;97383;-44
2022/08/05 09:22:02;;;;;;;12.00;10.83;;;22.70;99.90;;;23.09;60.77;101254.31;4997787;27;97854;-45
2022/08/05 09:24:28;;;;;;;15.60;14.10;;;22.60;99.90;;;23.14;60.94;101246.72;4995685;28;97591;-44
2022/08/05 09:26:57;;;;;;;11.67;10.50;;;22.70;99.90;;;23.19;60.11;101254.47;4998121;27;97345;-45
2022/08/05 09:29:47;;;;;;;12.70;11.60;;;22.80;99.90;;;23.29;60.23;101252.75;5001099;27;97910;-44
2022/08/05 09:32:13;;;;;;;15.00;13.50;;;23.00;99.90;;;23.13;61.21;101254.94;4996900;27;99319;-43
2022/08/05 09:34:57;;;;;;;9.83;8.97;;;22.70;99.90;;;23.18;59.86;101241.97;5008236;27;96874;-44
2022/08/05 09:37:27;;;;;;;14.10;12.70;;;22.70;99.90;;;23.21;59.94;101241.72;5009302;27;96959;-45
2022/08/05 09:39:53;;;;;;;10.27;9.37;;;22.80;99.90;;;23.22;59.90;101247.97;5004798;27;97005;-44
2022/08/05 09:42:21;;;;;;;12.70;11.37;;;22.80;99.90;;;23.19;60.17;101254.47;5016175;27;96749;-43
2022/08/05 09:44:50;;;;;;;14.77;13.37;;;22.80;99.90;;;23.11;60.56;101257.75;5009593;27;97017;-45
2022/08/05 09:47:16;;;;;;;15.63;13.33;;;22.60;99.90;;;23.04;61.77;101251.16;5009915;27;96580;-43
2022/08/05 09:49:50;;;;;;;10.23;9.33;;;22.60;99.90;;;23.08;60.38;101267.91;5008522;27;97597;-44
2022/08/05 09:52:25;;;;;;;14.97;12.93;;;22.50;99.90;;;23.13;60.31;101254.94;4991311;28;103568;-47
2022/08/05 09:55:09;;;;;;;13.80;12.43;;;22.70;99.90;;;23.14;60.36;101270.09;4999027;27;96789;-54
2022/08/05 09:57:42;;;;;;;14.77;12.20;;;22.70;99.90;;;23.20;60.74;101266.94;4999602;27;97205;-45
2022/08/05 10:00:19;;;;;;;10.33;9.40;;;22.80;99.90;;;23.24;60.97;101273.78;4997784;27;98202;-48
2022/08/05 10:02:53;;;;;;;10.70;9.63;;;22.90;99.90;;;23.19;59.68;101270.59;4995501;27;98501;-45
2022/08/05 10:05:27;;;;;;;12.57;11.37;;;22.70;99.90;;;23.15;60.07;101282.59;4992904;27;96982;-46
2022/08/05 10:07:54;;;;;;;8.97;8.17;;;22.80;99.90;;;23.19;59.81;101284.06;4992667;28;97014;-45
2022/08/05 10:10:24;;;;;;;12.70;11.10;;;22.70;99.90;;;23.06;60.66;101292.22;4992927;27;97754;-46
2022/08/05 10:13:01;;;;;;;12.67;11.37;;;22.60;99.90;;;23.02;60.98;101300.66;5007467;27;96857;-46
2022/08/05 10:15:36;;;;;;;10.50;9.43;;;22.50;99.90;;;22.91;61.27;101311.41;4990937;27;96805;-46